sensor_id;sensor_type;location;lat;lon;timestamp;temperature;humidity
33761;DHT22;20084;47.912;19.044;2023-04-15T00:00:13;8.50;99.90
33761;DHT22;20084;47.912;19.044;2023-04-15T00:02:40;8.50;99.90
33761;DHT22;20084;47.912;19.044;2023-04-15T00:05:06;8.50;99.90
33761;DHT22;20084;47.912;19.044;2023-04-15T00:07:31;8.50;99.90
33761;DHT22;20084;47.912;19.044;2023-04-15T00:09:57;8.60;99.90
33761;DHT22;20084;47.912;19.044;2023-04-15T00:12:23;8.60;99.90
33761;DHT22;20084;47.912;19.044;2023-04-15T00:14:49;8.60;99.90
33761;DHT22;20084;47.912;19.044;2023-04-15T00:17:15;8.60;99.90
33761;DHT22;20084;47.912;19.044;2023-04-15T00:19:41;8.50;99.90
33761;DHT22;20084;47.912;19.044;2023-04-15T00:22:06;8.50;99.90
33761;DHT22;20084;47.912;19.044;2023-04-15T00:24:32;8.50;99.90
33761;DHT22;20084;47.912;19.044;2023-04-15T00:26:58;8.50;99.90
33761;DHT22;20084;47.912;19.044;2023-04-15T00:29:24;8.50;99.90
33761;DHT22;20084;47.912;19.044;2023-04-15T00:31:50;8.50;99.90
33761;DHT22;20084;47.912;19.044;2023-04-15T00:34:15;8.40;99.90
33761;DHT22;20084;47.912;19.044;2023-04-15T00:36:41;8.50;99.90
33761;DHT22;20084;47.912;19.044;2023-04-15T00:39:06;8.50;99.90
33761;DHT22;20084;47.912;19.044;2023-04-15T00:41:32;8.50;99.90
33761;DHT22;20084;47.912;19.044;2023-04-15T00:43:58;8.60;99.90
33761;DHT22;20084;47.912;19.044;2023-04-15T00:46:25;8.50;99.90
33761;DHT22;20084;47.912;19.044;2023-04-15T00:48:53;8.60;99.90
33761;DHT22;20084;47.912;19.044;2023-04-15T00:51:19;8.60;99.90
33761;DHT22;20084;47.912;19.044;2023-04-15T00:53:44;8.60;99.90
33761;DHT22;20084;47.912;19.044;2023-04-15T00:56:10;8.50;99.90
33761;DHT22;20084;47.912;19.044;2023-04-15T00:58:35;8.60;99.90
33761;DHT22;20084;47.912;19.044;2023-04-15T01:01:01;8.50;99.90
33761;DHT22;20084;47.912;19.044;2023-04-15T01:03:27;8.50;99.90
33761;DHT22;20084;47.912;19.044;2023-04-15T01:05:53;8.60;99.90
33761;DHT22;20084;47.912;19.044;2023-04-15T01:08:28;8.60;99.90
33761;DHT22;20084;47.912;19.044;2023-04-15T01:10:55;8.60;99.90
33761;DHT22;20084;47.912;19.044;2023-04-15T01:13:22;8.50;99.90
33761;DHT22;20084;47.912;19.044;2023-04-15T01:15:48;8.50;99.90
33761;DHT22;20084;47.912;19.044;2023-04-15T01:18:13;8.60;99.90
33761;DHT22;20084;47.912;19.044;2023-04-15T01:20:39;8.60;99.90
33761;DHT22;20084;47.912;19.044;2023-04-15T01:23:05;8.60;99.90
33761;DHT22;20084;47.912;19.044;2023-04-15T01:25:32;8.50;99.90
33761;DHT22;20084;47.912;19.044;2023-04-15T01:27:57;8.50;99.90
33761;DHT22;20084;47.912;19.044;2023-04-15T01:30:23;8.60;99.90
33761;DHT22;20084;47.912;19.044;2023-04-15T01:32:50;8.50;99.90
33761;DHT22;20084;47.912;19.044;2023-04-15T01:35:16;8.40;99.90
33761;DHT22;20084;47.912;19.044;2023-04-15T01:37:41;8.20;99.90
33761;DHT22;20084;47.912;19.044;2023-04-15T01:40:07;8.30;99.90
33761;DHT22;20084;47.912;19.044;2023-04-15T01:42:33;8.30;99.90
33761;DHT22;20084;47.912;19.044;2023-04-15T01:44:59;8.30;99.90
33761;DHT22;20084;47.912;19.044;2023-04-15T01:47:25;8.30;99.90
33761;DHT22;20084;47.912;19.044;2023-04-15T01:49:51;8.30;99.90
33761;DHT22;20084;47.912;19.044;2023-04-15T01:52:16;8.20;99.90
33761;DHT22;20084;47.912;19.044;2023-04-15T01:54:42;8.20;99.90
33761;DHT22;20084;47.912;19.044;2023-04-15T01:57:08;8.20;99.90
33761;DHT22;20084;47.912;19.044;2023-04-15T01:59:34;8.30;99.90
33761;DHT22;20084;47.912;19.044;2023-04-15T02:02:00;8.30;99.90
33761;DHT22;20084;47.912;19.044;2023-04-15T02:04:25;8.40;99.90
33761;DHT22;20084;47.912;19.044;2023-04-15T02:06:52;8.40;99.90
33761;DHT22;20084;47.912;19.044;2023-04-15T02:09:17;8.40;99.90
33761;DHT22;20084;47.912;19.044;2023-04-15T02:11:44;8.40;99.90
33761;DHT22;20084;47.912;19.044;2023-04-15T02:14:10;8.40;99.90
33761;DHT22;20084;47.912;19.044;2023-04-15T02:16:35;8.40;99.90
33761;DHT22;20084;47.912;19.044;2023-04-15T02:19:01;8.40;99.90
33761;DHT22;20084;47.912;19.044;2023-04-15T02:21:27;8.40;99.90
33761;DHT22;20084;47.912;19.044;2023-04-15T02:23:53;8.40;99.90
33761;DHT22;20084;47.912;19.044;2023-04-15T02:26:18;8.30;99.90
33761;DHT22;20084;47.912;19.044;2023-04-15T02:28:45;8.30;99.90
33761;DHT22;20084;47.912;19.044;2023-04-15T02:31:11;8.30;99.90
33761;DHT22;20084;47.912;19.044;2023-04-15T02:33:36;8.40;99.90
33761;DHT22;20084;47.912;19.044;2023-04-15T02:36:02;8.30;99.90
33761;DHT22;20084;47.912;19.044;2023-04-15T02:38:27;8.40;99.90
33761;DHT22;20084;47.912;19.044;2023-04-15T02:40:53;8.40;99.90
33761;DHT22;20084;47.912;19.044;2023-04-15T02:43:19;8.40;99.90
33761;DHT22;20084;47.912;19.044;2023-04-15T02:45:45;8.40;99.90
33761;DHT22;20084;47.912;19.044;2023-04-15T02:48:11;8.30;99.90
33761;DHT22;20084;47.912;19.044;2023-04-15T02:50:37;8.30;99.90
33761;DHT22;20084;47.912;19.044;2023-04-15T02:53:06;8.30;99.90
33761;DHT22;20084;47.912;19.044;2023-04-15T02:55:31;8.40;99.90
33761;DHT22;20084;47.912;19.044;2023-04-15T02:57:57;8.40;99.90
33761;DHT22;20084;47.912;19.044;2023-04-15T03:00:26;8.40;99.90
33761;DHT22;20084;47.912;19.044;2023-04-15T03:02:56;8.40;99.90
33761;DHT22;20084;47.912;19.044;2023-04-15T03:05:22;8.30;99.90
33761;DHT22;20084;47.912;19.044;2023-04-15T03:07:50;8.30;99.90
33761;DHT22;20084;47.912;19.044;2023-04-15T03:10:16;8.30;99.90
33761;DHT22;20084;47.912;19.044;2023-04-15T03:12:41;8.40;99.90
33761;DHT22;20084;47.912;19.044;2023-04-15T03:15:07;8.30;99.90
33761;DHT22;20084;47.912;19.044;2023-04-15T03:17:33;8.40;99.90
33761;DHT22;20084;47.912;19.044;2023-04-15T03:20:00;8.30;99.90
33761;DHT22;20084;47.912;19.044;2023-04-15T03:22:25;8.40;99.90
33761;DHT22;20084;47.912;19.044;2023-04-15T03:24:51;8.40;99.90
33761;DHT22;20084;47.912;19.044;2023-04-15T03:27:16;8.40;99.90
33761;DHT22;20084;47.912;19.044;2023-04-15T03:29:41;8.50;99.90
33761;DHT22;20084;47.912;19.044;2023-04-15T03:32:07;8.50;99.90
33761;DHT22;20084;47.912;19.044;2023-04-15T03:34:32;8.50;99.90
33761;DHT22;20084;47.912;19.044;2023-04-15T03:36:58;8.50;99.90
33761;DHT22;20084;47.912;19.044;2023-04-15T03:39:23;8.50;99.90
33761;DHT22;20084;47.912;19.044;2023-04-15T03:41:49;8.50;99.90
33761;DHT22;20084;47.912;19.044;2023-04-15T03:44:15;8.50;99.90
33761;DHT22;20084;47.912;19.044;2023-04-15T03:46:40;8.50;99.90
33761;DHT22;20084;47.912;19.044;2023-04-15T03:49:06;8.40;99.90
33761;DHT22;20084;47.912;19.044;2023-04-15T03:51:32;8.20;99.90
33761;DHT22;20084;47.912;19.044;2023-04-15T03:53:57;8.20;99.90
33761;DHT22;20084;47.912;19.044;2023-04-15T03:56:23;8.20;99.90
33761;DHT22;20084;47.912;19.044;2023-04-15T03:58:49;8.30;99.90
33761;DHT22;20084;47.912;19.044;2023-04-15T04:01:15;8.30;99.90
33761;DHT22;20084;47.912;19.044;2023-04-15T04:03:41;8.30;99.90
33761;DHT22;20084;47.912;19.044;2023-04-15T04:06:06;8.30;99.90
33761;DHT22;20084;47.912;19.044;2023-04-15T04:08:32;8.30;99.90
33761;DHT22;20084;47.912;19.044;2023-04-15T04:10:58;8.40;99.90
33761;DHT22;20084;47.912;19.044;2023-04-15T04:13:23;8.50;99.90
33761;DHT22;20084;47.912;19.044;2023-04-15T04:15:49;8.50;99.90
33761;DHT22;20084;47.912;19.044;2023-04-15T04:18:15;8.50;99.90
33761;DHT22;20084;47.912;19.044;2023-04-15T04:20:40;8.50;99.90
33761;DHT22;20084;47.912;19.044;2023-04-15T04:23:06;8.50;99.90
33761;DHT22;20084;47.912;19.044;2023-04-15T04:25:31;8.50;99.90
33761;DHT22;20084;47.912;19.044;2023-04-15T04:27:57;8.60;99.90
33761;DHT22;20084;47.912;19.044;2023-04-15T04:30:23;8.60;99.90
33761;DHT22;20084;47.912;19.044;2023-04-15T04:32:48;8.50;99.90
33761;DHT22;20084;47.912;19.044;2023-04-15T04:35:14;8.60;99.90
33761;DHT22;20084;47.912;19.044;2023-04-15T04:37:40;8.50;99.90
33761;DHT22;20084;47.912;19.044;2023-04-15T04:40:06;8.60;99.90
33761;DHT22;20084;47.912;19.044;2023-04-15T04:42:32;8.50;99.90
33761;DHT22;20084;47.912;19.044;2023-04-15T04:44:57;8.60;99.90
33761;DHT22;20084;47.912;19.044;2023-04-15T04:47:23;8.60;99.90
33761;DHT22;20084;47.912;19.044;2023-04-15T04:49:48;8.60;99.90
33761;DHT22;20084;47.912;19.044;2023-04-15T04:52:14;8.60;99.90
33761;DHT22;20084;47.912;19.044;2023-04-15T04:54:40;8.60;99.90
33761;DHT22;20084;47.912;19.044;2023-04-15T04:57:05;8.60;99.90
33761;DHT22;20084;47.912;19.044;2023-04-15T04:59:32;8.70;99.90
33761;DHT22;20084;47.912;19.044;2023-04-15T05:01:57;8.70;99.90
33761;DHT22;20084;47.912;19.044;2023-04-15T05:04:23;8.70;99.90
33761;DHT22;20084;47.912;19.044;2023-04-15T05:06:48;8.70;99.90
33761;DHT22;20084;47.912;19.044;2023-04-15T05:09:14;8.70;99.90
33761;DHT22;20084;47.912;19.044;2023-04-15T05:11:40;8.70;99.90
33761;DHT22;20084;47.912;19.044;2023-04-15T05:14:05;8.80;99.90
33761;DHT22;20084;47.912;19.044;2023-04-15T05:16:31;8.80;99.90
33761;DHT22;20084;47.912;19.044;2023-04-15T05:18:57;8.70;99.90
33761;DHT22;20084;47.912;19.044;2023-04-15T05:21:22;8.70;99.90
33761;DHT22;20084;47.912;19.044;2023-04-15T05:23:48;8.60;99.90
33761;DHT22;20084;47.912;19.044;2023-04-15T05:26:13;8.60;99.90
33761;DHT22;20084;47.912;19.044;2023-04-15T05:28:39;8.60;99.90
33761;DHT22;20084;47.912;19.044;2023-04-15T05:31:05;8.70;99.90
33761;DHT22;20084;47.912;19.044;2023-04-15T05:33:31;8.60;99.90
33761;DHT22;20084;47.912;19.044;2023-04-15T05:35:57;8.60;99.90
33761;DHT22;20084;47.912;19.044;2023-04-15T05:38:22;8.60;99.90
33761;DHT22;20084;47.912;19.044;2023-04-15T05:40:48;8.70;99.90
33761;DHT22;20084;47.912;19.044;2023-04-15T05:43:13;8.80;99.90
33761;DHT22;20084;47.912;19.044;2023-04-15T05:45:39;8.80;99.90
33761;DHT22;20084;47.912;19.044;2023-04-15T05:48:04;8.90;99.90
33761;DHT22;20084;47.912;19.044;2023-04-15T05:50:30;9.00;99.90
33761;DHT22;20084;47.912;19.044;2023-04-15T05:52:56;9.00;99.90
33761;DHT22;20084;47.912;19.044;2023-04-15T05:55:21;9.00;99.90
33761;DHT22;20084;47.912;19.044;2023-04-15T05:57:47;9.00;99.90
33761;DHT22;20084;47.912;19.044;2023-04-15T06:00:12;9.00;99.90
33761;DHT22;20084;47.912;19.044;2023-04-15T06:02:38;8.90;99.90
33761;DHT22;20084;47.912;19.044;2023-04-15T06:05:04;9.00;99.90
33761;DHT22;20084;47.912;19.044;2023-04-15T06:07:37;9.00;99.90
33761;DHT22;20084;47.912;19.044;2023-04-15T06:10:03;9.10;99.90
33761;DHT22;20084;47.912;19.044;2023-04-15T06:12:29;9.20;99.90
33761;DHT22;20084;47.912;19.044;2023-04-15T06:14:54;9.20;99.90
33761;DHT22;20084;47.912;19.044;2023-04-15T06:17:19;9.20;99.90
33761;DHT22;20084;47.912;19.044;2023-04-15T06:19:45;9.30;99.90
33761;DHT22;20084;47.912;19.044;2023-04-15T06:22:10;9.30;99.90
33761;DHT22;20084;47.912;19.044;2023-04-15T06:24:36;9.30;99.90
33761;DHT22;20084;47.912;19.044;2023-04-15T06:27:02;9.40;99.90
33761;DHT22;20084;47.912;19.044;2023-04-15T06:29:27;9.30;99.90
33761;DHT22;20084;47.912;19.044;2023-04-15T06:31:53;9.30;99.90
33761;DHT22;20084;47.912;19.044;2023-04-15T06:34:18;9.30;99.90
33761;DHT22;20084;47.912;19.044;2023-04-15T06:36:44;9.30;99.90
33761;DHT22;20084;47.912;19.044;2023-04-15T06:39:10;9.30;99.90
33761;DHT22;20084;47.912;19.044;2023-04-15T06:41:36;9.30;99.90
33761;DHT22;20084;47.912;19.044;2023-04-15T06:44:02;9.30;99.90
33761;DHT22;20084;47.912;19.044;2023-04-15T06:46:27;9.40;99.90
33761;DHT22;20084;47.912;19.044;2023-04-15T06:48:53;9.50;99.90
33761;DHT22;20084;47.912;19.044;2023-04-15T06:51:18;9.50;99.90
33761;DHT22;20084;47.912;19.044;2023-04-15T06:53:44;9.60;99.90
33761;DHT22;20084;47.912;19.044;2023-04-15T06:56:09;9.70;99.90
33761;DHT22;20084;47.912;19.044;2023-04-15T06:58:35;9.90;99.90
33761;DHT22;20084;47.912;19.044;2023-04-15T07:01:01;9.90;99.90
33761;DHT22;20084;47.912;19.044;2023-04-15T07:03:27;10.00;99.90
33761;DHT22;20084;47.912;19.044;2023-04-15T07:05:53;10.00;99.90
33761;DHT22;20084;47.912;19.044;2023-04-15T07:08:19;10.00;99.90
33761;DHT22;20084;47.912;19.044;2023-04-15T07:10:45;10.00;99.90
33761;DHT22;20084;47.912;19.044;2023-04-15T07:13:10;10.00;99.90
33761;DHT22;20084;47.912;19.044;2023-04-15T07:15:36;10.00;99.90
33761;DHT22;20084;47.912;19.044;2023-04-15T07:18:01;9.90;99.90
33761;DHT22;20084;47.912;19.044;2023-04-15T07:20:27;9.90;99.90
33761;DHT22;20084;47.912;19.044;2023-04-15T07:22:52;9.90;99.90
33761;DHT22;20084;47.912;19.044;2023-04-15T07:25:19;9.90;99.90
33761;DHT22;20084;47.912;19.044;2023-04-15T07:27:44;10.00;99.90
33761;DHT22;20084;47.912;19.044;2023-04-15T07:30:10;10.00;99.90
33761;DHT22;20084;47.912;19.044;2023-04-15T07:32:37;10.10;99.90
33761;DHT22;20084;47.912;19.044;2023-04-15T07:35:02;10.10;99.90
33761;DHT22;20084;47.912;19.044;2023-04-15T07:37:28;10.10;99.90
33761;DHT22;20084;47.912;19.044;2023-04-15T07:39:54;10.10;99.90
33761;DHT22;20084;47.912;19.044;2023-04-15T12:13:57;12.40;99.90
33761;DHT22;20084;47.912;19.044;2023-04-15T12:16:23;12.40;99.90
33761;DHT22;20084;47.912;19.044;2023-04-15T12:18:52;12.40;99.90
33761;DHT22;20084;47.912;19.044;2023-04-15T12:21:27;12.30;99.90
33761;DHT22;20084;47.912;19.044;2023-04-15T12:24:00;12.30;99.90
33761;DHT22;20084;47.912;19.044;2023-04-15T12:26:27;12.40;99.90
33761;DHT22;20084;47.912;19.044;2023-04-15T12:28:53;12.40;99.90
33761;DHT22;20084;47.912;19.044;2023-04-15T12:31:20;12.60;99.90
33761;DHT22;20084;47.912;19.044;2023-04-15T12:33:48;12.70;99.90
33761;DHT22;20084;47.912;19.044;2023-04-15T12:36:14;12.70;99.90
33761;DHT22;20084;47.912;19.044;2023-04-15T12:38:40;12.60;99.90
33761;DHT22;20084;47.912;19.044;2023-04-15T12:41:06;12.50;99.90
33761;DHT22;20084;47.912;19.044;2023-04-15T12:43:31;12.50;99.90
33761;DHT22;20084;47.912;19.044;2023-04-15T12:45:57;12.50;99.90
33761;DHT22;20084;47.912;19.044;2023-04-15T12:48:22;12.50;99.90
33761;DHT22;20084;47.912;19.044;2023-04-15T12:50:48;12.60;99.90
33761;DHT22;20084;47.912;19.044;2023-04-15T12:53:14;12.50;99.90
33761;DHT22;20084;47.912;19.044;2023-04-15T12:55:39;12.60;99.90
33761;DHT22;20084;47.912;19.044;2023-04-15T12:58:05;12.60;99.90
33761;DHT22;20084;47.912;19.044;2023-04-15T13:00:33;12.60;99.90
33761;DHT22;20084;47.912;19.044;2023-04-15T13:02:58;12.50;99.90
33761;DHT22;20084;47.912;19.044;2023-04-15T13:05:24;12.40;99.90
33761;DHT22;20084;47.912;19.044;2023-04-15T13:07:49;12.40;99.90
33761;DHT22;20084;47.912;19.044;2023-04-15T13:10:15;12.40;99.90
33761;DHT22;20084;47.912;19.044;2023-04-15T13:12:41;12.50;99.90
33761;DHT22;20084;47.912;19.044;2023-04-15T13:15:06;12.60;99.90
33761;DHT22;20084;47.912;19.044;2023-04-15T13:17:34;12.50;99.90
33761;DHT22;20084;47.912;19.044;2023-04-15T13:20:00;12.30;99.90
33761;DHT22;20084;47.912;19.044;2023-04-15T13:22:26;12.30;99.90
33761;DHT22;20084;47.912;19.044;2023-04-15T13:24:51;12.20;99.90
33761;DHT22;20084;47.912;19.044;2023-04-15T13:27:17;12.10;99.90
33761;DHT22;20084;47.912;19.044;2023-04-15T13:29:43;12.10;99.90
33761;DHT22;20084;47.912;19.044;2023-04-15T13:32:08;12.10;99.90
33761;DHT22;20084;47.912;19.044;2023-04-15T13:34:34;12.00;99.90
33761;DHT22;20084;47.912;19.044;2023-04-15T13:37:06;12.10;99.90
33761;DHT22;20084;47.912;19.044;2023-04-15T13:39:32;12.10;99.90
33761;DHT22;20084;47.912;19.044;2023-04-15T13:41:57;12.20;99.90
33761;DHT22;20084;47.912;19.044;2023-04-15T13:44:23;12.20;99.90
33761;DHT22;20084;47.912;19.044;2023-04-15T13:46:49;12.20;99.90
33761;DHT22;20084;47.912;19.044;2023-04-15T13:49:14;12.20;99.90
33761;DHT22;20084;47.912;19.044;2023-04-15T13:51:40;12.10;99.90
33761;DHT22;20084;47.912;19.044;2023-04-15T13:54:06;12.10;99.90
33761;DHT22;20084;47.912;19.044;2023-04-15T13:56:32;12.20;99.90
33761;DHT22;20084;47.912;19.044;2023-04-15T13:58:57;12.20;99.90
33761;DHT22;20084;47.912;19.044;2023-04-15T14:01:26;12.20;99.90
33761;DHT22;20084;47.912;19.044;2023-04-15T14:03:52;12.10;99.90
33761;DHT22;20084;47.912;19.044;2023-04-15T14:06:17;12.10;99.90
33761;DHT22;20084;47.912;19.044;2023-04-15T14:08:43;12.10;99.90
33761;DHT22;20084;47.912;19.044;2023-04-15T14:11:08;12.10;99.90
33761;DHT22;20084;47.912;19.044;2023-04-15T14:13:35;12.20;99.90
33761;DHT22;20084;47.912;19.044;2023-04-15T14:16:00;12.30;99.90
33761;DHT22;20084;47.912;19.044;2023-04-15T14:18:26;12.30;99.90
33761;DHT22;20084;47.912;19.044;2023-04-15T14:20:52;12.30;99.90
33761;DHT22;20084;47.912;19.044;2023-04-15T14:23:17;12.30;99.90
33761;DHT22;20084;47.912;19.044;2023-04-15T14:25:43;12.30;99.90
33761;DHT22;20084;47.912;19.044;2023-04-15T14:28:08;12.40;99.90
33761;DHT22;20084;47.912;19.044;2023-04-15T14:30:34;12.40;99.90
33761;DHT22;20084;47.912;19.044;2023-04-15T14:32:59;12.50;99.90
33761;DHT22;20084;47.912;19.044;2023-04-15T14:35:25;12.50;99.90
33761;DHT22;20084;47.912;19.044;2023-04-15T14:37:52;12.40;99.90
33761;DHT22;20084;47.912;19.044;2023-04-15T14:40:18;12.20;99.90
33761;DHT22;20084;47.912;19.044;2023-04-15T14:42:43;12.10;99.90
33761;DHT22;20084;47.912;19.044;2023-04-15T14:45:09;12.10;99.90
33761;DHT22;20084;47.912;19.044;2023-04-15T14:47:35;12.00;99.90
33761;DHT22;20084;47.912;19.044;2023-04-15T14:50:01;11.90;99.90
33761;DHT22;20084;47.912;19.044;2023-04-15T14:52:26;12.00;99.90
33761;DHT22;20084;47.912;19.044;2023-04-15T14:54:52;12.10;99.90
33761;DHT22;20084;47.912;19.044;2023-04-15T14:57:18;12.10;99.90
33761;DHT22;20084;47.912;19.044;2023-04-15T14:59:43;12.10;99.90
33761;DHT22;20084;47.912;19.044;2023-04-15T15:02:09;12.20;99.90
33761;DHT22;20084;47.912;19.044;2023-04-15T15:04:35;12.20;99.90
33761;DHT22;20084;47.912;19.044;2023-04-15T15:07:00;12.20;99.90
33761;DHT22;20084;47.912;19.044;2023-04-15T15:09:27;12.10;99.90
33761;DHT22;20084;47.912;19.044;2023-04-15T15:11:53;12.00;99.90
33761;DHT22;20084;47.912;19.044;2023-04-15T15:14:18;11.90;99.90
33761;DHT22;20084;47.912;19.044;2023-04-15T15:16:44;12.00;99.90
33761;DHT22;20084;47.912;19.044;2023-04-15T15:19:10;12.00;99.90
33761;DHT22;20084;47.912;19.044;2023-04-15T15:21:36;12.00;99.90
33761;DHT22;20084;47.912;19.044;2023-04-15T15:24:01;11.90;99.90
33761;DHT22;20084;47.912;19.044;2023-04-15T15:26:27;12.10;99.90
33761;DHT22;20084;47.912;19.044;2023-04-15T15:28:53;12.20;99.90
33761;DHT22;20084;47.912;19.044;2023-04-15T15:31:19;12.20;99.90
33761;DHT22;20084;47.912;19.044;2023-04-15T15:33:44;12.20;99.90
33761;DHT22;20084;47.912;19.044;2023-04-15T15:36:10;12.30;99.90
33761;DHT22;20084;47.912;19.044;2023-04-15T15:38:35;12.30;99.90
33761;DHT22;20084;47.912;19.044;2023-04-15T15:41:01;12.40;99.90
33761;DHT22;20084;47.912;19.044;2023-04-15T15:43:26;12.50;99.90
33761;DHT22;20084;47.912;19.044;2023-04-15T15:45:52;12.60;99.90
33761;DHT22;20084;47.912;19.044;2023-04-15T15:48:20;12.60;99.90
33761;DHT22;20084;47.912;19.044;2023-04-15T15:50:46;12.60;99.90
33761;DHT22;20084;47.912;19.044;2023-04-15T15:53:12;12.60;99.90
33761;DHT22;20084;47.912;19.044;2023-04-15T15:55:42;12.60;99.90
33761;DHT22;20084;47.912;19.044;2023-04-15T15:58:08;12.60;99.90
33761;DHT22;20084;47.912;19.044;2023-04-15T16:00:33;12.70;99.90
33761;DHT22;20084;47.912;19.044;2023-04-15T16:02:59;12.60;99.90
33761;DHT22;20084;47.912;19.044;2023-04-15T16:05:24;12.60;99.90
33761;DHT22;20084;47.912;19.044;2023-04-15T16:07:50;12.60;99.90
33761;DHT22;20084;47.912;19.044;2023-04-15T16:10:15;12.40;99.90
33761;DHT22;20084;47.912;19.044;2023-04-15T16:12:41;12.30;99.90
33761;DHT22;20084;47.912;19.044;2023-04-15T16:15:08;12.20;99.90
33761;DHT22;20084;47.912;19.044;2023-04-15T16:17:34;12.20;99.90
33761;DHT22;20084;47.912;19.044;2023-04-15T16:19:59;12.30;99.90
33761;DHT22;20084;47.912;19.044;2023-04-15T16:22:30;12.20;99.90
33761;DHT22;20084;47.912;19.044;2023-04-15T16:24:56;12.20;99.90
33761;DHT22;20084;47.912;19.044;2023-04-15T16:27:22;12.20;99.90
33761;DHT22;20084;47.912;19.044;2023-04-15T16:29:48;12.30;99.90
33761;DHT22;20084;47.912;19.044;2023-04-15T16:32:14;12.30;99.90
33761;DHT22;20084;47.912;19.044;2023-04-15T16:34:40;12.30;99.90
33761;DHT22;20084;47.912;19.044;2023-04-15T16:37:06;12.40;99.90
33761;DHT22;20084;47.912;19.044;2023-04-15T16:39:32;12.40;99.90
33761;DHT22;20084;47.912;19.044;2023-04-15T16:41:57;12.40;99.90
33761;DHT22;20084;47.912;19.044;2023-04-15T16:44:23;12.40;99.90
33761;DHT22;20084;47.912;19.044;2023-04-15T16:46:49;12.30;99.90
33761;DHT22;20084;47.912;19.044;2023-04-15T16:49:15;12.30;99.90
33761;DHT22;20084;47.912;19.044;2023-04-15T16:51:41;12.30;99.90
33761;DHT22;20084;47.912;19.044;2023-04-15T16:54:07;12.30;99.90
33761;DHT22;20084;47.912;19.044;2023-04-15T16:56:32;12.40;99.90
33761;DHT22;20084;47.912;19.044;2023-04-15T16:58:58;12.30;99.90
33761;DHT22;20084;47.912;19.044;2023-04-15T17:01:23;12.30;99.90
33761;DHT22;20084;47.912;19.044;2023-04-15T17:03:49;12.10;99.90
33761;DHT22;20084;47.912;19.044;2023-04-15T17:06:15;12.10;99.90
33761;DHT22;20084;47.912;19.044;2023-04-15T17:08:42;12.20;99.90
33761;DHT22;20084;47.912;19.044;2023-04-15T17:11:07;12.20;99.90
33761;DHT22;20084;47.912;19.044;2023-04-15T17:13:33;12.20;99.90
33761;DHT22;20084;47.912;19.044;2023-04-15T17:15:59;12.10;99.90
33761;DHT22;20084;47.912;19.044;2023-04-15T17:18:24;12.00;99.90
33761;DHT22;20084;47.912;19.044;2023-04-15T17:20:50;11.90;99.90
33761;DHT22;20084;47.912;19.044;2023-04-15T17:23:15;11.80;99.90
33761;DHT22;20084;47.912;19.044;2023-04-15T17:25:41;11.80;99.90
33761;DHT22;20084;47.912;19.044;2023-04-15T17:28:06;11.80;99.90
33761;DHT22;20084;47.912;19.044;2023-04-15T17:30:32;11.80;99.90
33761;DHT22;20084;47.912;19.044;2023-04-15T17:32:58;11.70;99.90
33761;DHT22;20084;47.912;19.044;2023-04-15T17:35:24;11.70;99.90
33761;DHT22;20084;47.912;19.044;2023-04-15T17:37:50;11.70;99.90
33761;DHT22;20084;47.912;19.044;2023-04-15T17:40:16;11.80;99.90
33761;DHT22;20084;47.912;19.044;2023-04-15T17:42:42;11.70;99.90
33761;DHT22;20084;47.912;19.044;2023-04-15T17:45:07;11.70;99.90
33761;DHT22;20084;47.912;19.044;2023-04-15T17:47:33;11.60;99.90
33761;DHT22;20084;47.912;19.044;2023-04-15T17:49:59;11.60;99.90
33761;DHT22;20084;47.912;19.044;2023-04-15T17:52:24;11.60;99.90
33761;DHT22;20084;47.912;19.044;2023-04-15T17:54:50;11.60;99.90
33761;DHT22;20084;47.912;19.044;2023-04-15T17:57:15;11.60;99.90
33761;DHT22;20084;47.912;19.044;2023-04-15T17:59:41;11.50;99.90
33761;DHT22;20084;47.912;19.044;2023-04-15T18:02:12;11.60;99.90
33761;DHT22;20084;47.912;19.044;2023-04-15T18:04:38;11.50;99.90
33761;DHT22;20084;47.912;19.044;2023-04-15T18:07:03;11.50;99.90
33761;DHT22;20084;47.912;19.044;2023-04-15T18:09:29;11.50;99.90
33761;DHT22;20084;47.912;19.044;2023-04-15T18:11:55;11.60;99.90
33761;DHT22;20084;47.912;19.044;2023-04-15T18:14:21;11.60;99.90
33761;DHT22;20084;47.912;19.044;2023-04-15T18:16:47;11.50;99.90
33761;DHT22;20084;47.912;19.044;2023-04-15T18:19:13;11.40;99.90
33761;DHT22;20084;47.912;19.044;2023-04-15T18:21:39;11.30;99.90
33761;DHT22;20084;47.912;19.044;2023-04-15T18:24:05;11.20;99.90
33761;DHT22;20084;47.912;19.044;2023-04-15T18:26:31;11.20;99.90
33761;DHT22;20084;47.912;19.044;2023-04-15T18:28:57;11.10;99.90
33761;DHT22;20084;47.912;19.044;2023-04-15T18:31:23;11.10;99.90
33761;DHT22;20084;47.912;19.044;2023-04-15T18:33:48;10.90;99.90
33761;DHT22;20084;47.912;19.044;2023-04-15T18:36:15;10.80;99.90
33761;DHT22;20084;47.912;19.044;2023-04-15T18:38:41;10.70;99.90
33761;DHT22;20084;47.912;19.044;2023-04-15T18:41:06;10.70;99.90
33761;DHT22;20084;47.912;19.044;2023-04-15T18:43:32;10.60;99.90
33761;DHT22;20084;47.912;19.044;2023-04-15T18:45:58;10.50;99.90
33761;DHT22;20084;47.912;19.044;2023-04-15T18:48:26;10.50;99.90
33761;DHT22;20084;47.912;19.044;2023-04-15T18:50:56;10.50;99.90
33761;DHT22;20084;47.912;19.044;2023-04-15T18:53:22;10.50;99.90
33761;DHT22;20084;47.912;19.044;2023-04-15T18:55:48;10.30;99.90
33761;DHT22;20084;47.912;19.044;2023-04-15T18:58:14;10.20;99.90
33761;DHT22;20084;47.912;19.044;2023-04-15T19:00:40;10.10;99.90
33761;DHT22;20084;47.912;19.044;2023-04-15T19:03:08;10.00;99.90
33761;DHT22;20084;47.912;19.044;2023-04-15T19:05:34;9.90;99.90
33761;DHT22;20084;47.912;19.044;2023-04-15T19:08:00;10.00;99.90
33761;DHT22;20084;47.912;19.044;2023-04-15T19:10:26;10.00;99.90
33761;DHT22;20084;47.912;19.044;2023-04-15T19:12:52;10.00;99.90
33761;DHT22;20084;47.912;19.044;2023-04-15T19:15:18;9.90;99.90
33761;DHT22;20084;47.912;19.044;2023-04-15T19:17:45;9.80;99.90
33761;DHT22;20084;47.912;19.044;2023-04-15T19:20:11;9.70;99.90
33761;DHT22;20084;47.912;19.044;2023-04-15T19:22:38;9.60;99.90
33761;DHT22;20084;47.912;19.044;2023-04-15T19:25:04;9.50;99.90
33761;DHT22;20084;47.912;19.044;2023-04-15T19:27:30;9.50;99.90
33761;DHT22;20084;47.912;19.044;2023-04-15T19:29:56;9.50;99.90
33761;DHT22;20084;47.912;19.044;2023-04-15T19:32:22;9.50;99.90
33761;DHT22;20084;47.912;19.044;2023-04-15T19:34:47;9.50;99.90
33761;DHT22;20084;47.912;19.044;2023-04-15T19:37:13;9.40;99.90
33761;DHT22;20084;47.912;19.044;2023-04-15T19:39:39;9.30;99.90
33761;DHT22;20084;47.912;19.044;2023-04-15T19:42:05;9.20;99.90
33761;DHT22;20084;47.912;19.044;2023-04-15T19:44:30;9.10;99.90